Calvary, Georgia
Current Conditions -  °F | °C
As of 1:55 AM on Monday 24 Nov 2014 (Local Time) from K2J9 Reporting Station
Overcast Overcast  
Wind Chill: 64°   Ceiling: 500
Heat Index: 64°   Visibility: 10mi
Dew Point: 64°   Wind: 3mph
Humidity: 100%   Direction: 190°S
Pressure: 29.85"   Gusts: NA
Location:  30.73°N, 84.35°W
Report Text: K2J9 240655Z AUTO 19003KT 10SM OVC005 18/18 A2985 RMK AO1 P0334
Loading
Personal Weather Stations






























Interactive Weather Map New forecast layout! Learn more

10-Day Weather Forecast

Advertisements
Track Severe Weather on mobile